createdAt,value
2024-04-09T00:01:49.542Z,26.70
2024-04-09T00:04:16.583Z,25.13
2024-04-09T00:06:43.790Z,24.15
2024-04-09T00:09:12.559Z,24.50
2024-04-09T00:11:39.472Z,25.48
2024-04-09T00:14:06.317Z,22.75
2024-04-09T00:16:34.998Z,23.15
2024-04-09T00:19:02.216Z,28.00
2024-04-09T00:21:32.549Z,30.88
2024-04-09T00:24:00.026Z,27.95
2024-04-09T00:26:27.582Z,29.08
2024-04-09T00:28:54.703Z,31.27
2024-04-09T00:31:27.773Z,24.23
2024-04-09T00:33:54.800Z,25.80
2024-04-09T00:36:21.660Z,24.95
2024-04-09T00:38:49.328Z,27.17
2024-04-09T00:41:17.115Z,25.38
2024-04-09T00:43:44.249Z,26.52
2024-04-09T00:46:11.733Z,25.13
2024-04-09T00:48:39.149Z,25.00
2024-04-09T00:51:08.058Z,24.73
2024-04-09T00:53:37.991Z,22.40
2024-04-09T00:56:07.051Z,25.50
2024-04-09T00:58:36.130Z,22.88
2024-04-09T01:01:05.235Z,24.13
2024-04-09T01:03:32.484Z,21.73
2024-04-09T01:05:59.528Z,23.17
2024-04-09T01:08:26.250Z,24.80
2024-04-09T01:10:52.983Z,21.83
2024-04-09T01:13:19.704Z,19.88
2024-04-09T01:15:46.541Z,21.08
2024-04-09T01:18:13.358Z,22.00
2024-04-09T01:20:40.229Z,21.92
2024-04-09T01:23:07.221Z,18.73
2024-04-09T01:25:34.165Z,21.10
2024-04-09T01:28:00.964Z,17.20
2024-04-09T01:30:28.105Z,18.77
2024-04-09T01:32:55.126Z,20.85
2024-04-09T01:35:22.042Z,20.15
2024-04-09T01:37:48.759Z,21.15
2024-04-09T01:40:15.524Z,18.98
2024-04-09T01:42:43.147Z,21.40
2024-04-09T01:45:09.996Z,21.23
2024-04-09T01:47:37.848Z,17.33
2024-04-09T01:50:05.998Z,21.05
2024-04-09T01:52:33.342Z,20.90
2024-04-09T01:55:00.189Z,21.45
2024-04-09T01:57:33.045Z,18.88
2024-04-09T02:00:00.536Z,19.55
2024-04-09T02:02:27.640Z,19.55
2024-04-09T02:04:55.204Z,21.85
2024-04-09T02:07:21.950Z,18.25
2024-04-09T02:09:51.411Z,16.90
2024-04-09T02:12:18.127Z,17.70
2024-04-09T02:14:45.080Z,17.23
2024-04-09T02:17:12.637Z,16.42
2024-04-09T02:19:39.456Z,17.10
2024-04-09T02:22:06.159Z,15.75
2024-04-09T02:24:33.035Z,16.45
2024-04-09T02:26:59.892Z,18.67
2024-04-09T02:29:26.734Z,17.83
2024-04-09T02:31:53.760Z,18.15
2024-04-09T02:34:24.839Z,15.60
2024-04-09T02:36:52.699Z,15.02
2024-04-09T02:39:19.742Z,18.00
2024-04-09T02:41:46.710Z,13.55
2024-04-09T02:44:13.421Z,15.20
2024-04-09T02:46:40.445Z,15.32
2024-04-09T02:49:07.915Z,15.43
2024-04-09T02:51:37.313Z,17.27
2024-04-09T02:54:04.336Z,15.50
2024-04-09T02:56:31.676Z,12.43
2024-04-09T02:58:58.585Z,12.15
2024-04-09T03:01:25.545Z,11.10
2024-04-09T03:03:52.504Z,11.30
2024-04-09T03:06:19.700Z,11.43
2024-04-09T03:08:46.793Z,10.98
2024-04-09T03:11:18.440Z,12.75
2024-04-09T03:13:47.657Z,12.85
2024-04-09T03:16:15.816Z,11.85
2024-04-09T03:18:43.830Z,12.18
2024-04-09T03:21:11.323Z,9.90
2024-04-09T03:23:42.680Z,10.93
2024-04-09T03:26:13.804Z,12.20
2024-04-09T03:28:40.759Z,11.07
2024-04-09T03:31:08.519Z,8.68
2024-04-09T03:33:35.819Z,8.82
2024-04-09T03:36:07.157Z,12.52
2024-04-09T03:38:33.982Z,11.23
2024-04-09T03:41:02.924Z,10.48
2024-04-09T03:43:30.050Z,10.88
2024-04-09T03:46:05.526Z,11.90
2024-04-09T03:48:32.774Z,11.63
2024-04-09T03:50:59.718Z,12.45
2024-04-09T03:53:27.065Z,11.07
2024-04-09T03:55:58.067Z,12.98
2024-04-09T03:58:47.135Z,14.85
2024-04-09T04:01:14.163Z,11.65
2024-04-09T04:03:43.096Z,10.80
2024-04-09T04:06:10.621Z,12.60
2024-04-09T04:08:42.052Z,9.35
2024-04-09T04:11:11.030Z,12.10
2024-04-09T04:13:39.269Z,11.60
2024-04-09T04:16:07.866Z,13.57
2024-04-09T04:18:40.871Z,11.07
2024-04-09T04:21:13.875Z,10.55
2024-04-09T04:23:41.407Z,12.00
2024-04-09T04:26:10.093Z,11.55
2024-04-09T04:28:39.050Z,13.38
2024-04-09T04:31:16.566Z,12.77
2024-04-09T04:33:45.049Z,10.38
2024-04-09T04:36:16.028Z,13.25
2024-04-09T04:38:44.984Z,10.40
2024-04-09T04:41:12.237Z,11.90
2024-04-09T04:43:40.068Z,13.30
2024-04-09T04:46:10.376Z,14.85
2024-04-09T04:48:39.266Z,13.25
2024-04-09T04:51:07.020Z,18.27
2024-04-09T04:53:34.346Z,11.57
2024-04-09T04:56:01.171Z,13.43
2024-04-09T04:58:28.180Z,17.42
2024-04-09T05:00:55.187Z,15.30
2024-04-09T05:03:22.323Z,15.35
2024-04-09T05:05:49.888Z,15.77
2024-04-09T05:08:17.148Z,12.80
2024-04-09T05:10:43.894Z,12.90
2024-04-09T05:13:10.728Z,12.45
2024-04-09T05:15:37.662Z,12.98
2024-04-09T05:18:05.373Z,11.25
2024-04-09T05:20:32.253Z,11.75
2024-04-09T05:22:59.612Z,13.68
2024-04-09T05:25:31.835Z,10.07
2024-04-09T05:27:58.834Z,9.40
2024-04-09T05:30:25.894Z,9.98
2024-04-09T05:32:52.964Z,11.65
2024-04-09T05:35:21.316Z,12.65
2024-04-09T05:37:48.528Z,14.13
2024-04-09T05:40:15.783Z,11.13
2024-04-09T05:42:45.678Z,13.98
2024-04-09T05:45:15.225Z,9.43
2024-04-09T05:47:42.798Z,10.68
2024-04-09T05:50:10.352Z,14.27
2024-04-09T05:52:38.115Z,9.70
2024-04-09T05:55:09.119Z,11.07
2024-04-09T05:57:39.507Z,13.70
2024-04-09T06:00:21.592Z,10.10
2024-04-09T06:02:51.864Z,8.50
2024-04-09T06:05:18.949Z,10.63
2024-04-09T06:07:46.959Z,10.57
2024-04-09T06:10:16.524Z,7.50
2024-04-09T06:12:43.595Z,7.53
2024-04-09T06:15:10.666Z,7.93
2024-04-09T06:17:37.646Z,12.02
2024-04-09T06:20:06.538Z,8.00
2024-04-09T06:22:33.746Z,6.63
2024-04-09T06:25:00.663Z,7.60
2024-04-09T06:27:27.431Z,8.73
2024-04-09T06:29:54.418Z,7.60
2024-04-09T06:32:21.225Z,7.65
2024-04-09T06:34:48.015Z,9.60
2024-04-09T06:37:14.802Z,6.45
2024-04-09T06:39:41.689Z,7.85
2024-04-09T06:42:08.515Z,5.25
2024-04-09T06:44:35.351Z,5.55
2024-04-09T06:47:03.118Z,6.07
2024-04-09T06:49:30.048Z,5.15
2024-04-09T06:51:57.082Z,7.43
2024-04-09T06:54:23.937Z,6.57
2024-04-09T06:56:50.825Z,5.47
2024-04-09T06:59:18.919Z,4.95
2024-04-09T07:01:46.218Z,4.90
2024-04-09T07:04:13.527Z,5.85
2024-04-09T07:06:40.834Z,7.15
2024-04-09T07:09:08.319Z,6.38
2024-04-09T07:11:35.650Z,4.88
2024-04-09T07:14:02.600Z,5.00
2024-04-09T07:16:29.674Z,3.97
2024-04-09T07:18:56.687Z,5.25
2024-04-09T07:21:23.849Z,7.97
2024-04-09T07:23:50.797Z,4.85
2024-04-09T07:26:18.091Z,4.75
2024-04-09T07:28:45.278Z,4.60
2024-04-09T07:31:12.315Z,4.82
2024-04-09T07:33:39.572Z,4.72
2024-04-09T07:36:06.906Z,4.22
2024-04-09T07:38:34.049Z,3.63
2024-04-09T07:41:01.387Z,5.80
2024-04-09T07:43:34.004Z,4.95
2024-04-09T07:46:03.179Z,4.25
2024-04-09T07:48:30.260Z,4.90
2024-04-09T07:50:57.778Z,4.82
2024-04-09T07:53:24.631Z,3.78
2024-04-09T07:55:52.177Z,5.78
2024-04-09T07:58:19.063Z,5.03
2024-04-09T08:00:46.393Z,6.30
2024-04-09T08:03:13.469Z,5.55
2024-04-09T08:05:40.823Z,6.07
2024-04-09T08:08:09.161Z,3.83
2024-04-09T08:10:37.444Z,6.43
2024-04-09T08:13:04.512Z,5.32
2024-04-09T08:15:31.437Z,5.35
2024-04-09T08:17:58.936Z,4.00
2024-04-09T08:20:26.475Z,4.72
2024-04-09T08:22:53.632Z,4.68
2024-04-09T08:25:21.925Z,6.43
2024-04-09T08:27:52.651Z,6.35
2024-04-09T08:30:19.880Z,4.95
2024-04-09T08:32:51.735Z,5.93
2024-04-09T08:35:18.886Z,5.72
2024-04-09T08:37:48.022Z,5.88
2024-04-09T08:40:19.769Z,7.68
2024-04-09T08:42:47.575Z,6.75
2024-04-09T08:45:17.279Z,5.93
2024-04-09T08:47:46.087Z,6.40
2024-04-09T08:50:16.475Z,5.65
2024-04-09T08:52:44.594Z,7.68
2024-04-09T08:55:11.584Z,5.72
2024-04-09T08:57:39.771Z,5.47
2024-04-09T09:00:08.095Z,7.72
2024-04-09T09:02:38.555Z,5.85
2024-04-09T09:05:16.028Z,6.15
2024-04-09T09:07:42.936Z,4.50
2024-04-09T09:10:11.646Z,6.75
2024-04-09T09:12:38.655Z,4.80
2024-04-09T09:15:06.771Z,4.72
2024-04-09T09:17:35.418Z,6.57
2024-04-09T09:20:11.171Z,5.90
2024-04-09T09:22:48.978Z,5.13
2024-04-09T09:25:17.351Z,6.85
2024-04-09T09:27:47.690Z,7.43
2024-04-09T09:30:18.068Z,5.70
2024-04-09T09:32:49.976Z,7.40
2024-04-09T09:35:19.188Z,6.93
2024-04-09T09:37:50.721Z,6.07
2024-04-09T09:40:18.865Z,5.70
2024-04-09T09:42:47.679Z,6.03
2024-04-09T09:45:19.465Z,6.72
2024-04-09T09:47:47.768Z,6.90
2024-04-09T09:50:19.007Z,9.45
2024-04-09T09:52:47.190Z,7.65
2024-04-09T09:55:17.337Z,7.78
2024-04-09T09:57:47.463Z,12.45
2024-04-09T10:00:17.039Z,9.68
2024-04-09T10:05:17.093Z,9.35
2024-04-09T10:07:49.777Z,10.50
2024-04-09T10:10:27.146Z,10.15
2024-04-09T10:13:00.426Z,10.25
2024-04-09T10:15:32.202Z,10.05
2024-04-09T10:18:07.333Z,10.43
2024-04-09T10:20:39.064Z,10.90
2024-04-09T10:23:11.570Z,9.82
2024-04-09T10:25:41.588Z,11.35
2024-04-09T10:28:11.563Z,11.27
2024-04-09T10:30:40.109Z,11.18
2024-04-09T10:33:08.975Z,9.70
2024-04-09T10:35:36.114Z,9.65
2024-04-09T10:38:07.529Z,10.55
2024-04-09T10:40:37.879Z,11.43
2024-04-09T10:43:09.397Z,8.63
2024-04-09T10:45:47.527Z,10.98
2024-04-09T10:48:23.477Z,11.30
2024-04-09T10:50:51.696Z,8.68
2024-04-09T10:53:18.832Z,13.02
2024-04-09T10:55:48.777Z,9.98
2024-04-09T10:58:17.379Z,9.60
2024-04-09T11:00:49.908Z,8.93
2024-04-09T11:03:23.125Z,9.80
2024-04-09T11:05:52.904Z,10.50
2024-04-09T11:08:31.899Z,9.02
2024-04-09T11:11:02.265Z,11.43
2024-04-09T11:13:31.120Z,6.97
2024-04-09T11:15:58.812Z,7.38
2024-04-09T11:18:26.659Z,5.70
2024-04-09T11:21:05.181Z,5.85
2024-04-09T11:23:35.437Z,4.45
2024-04-09T11:26:06.981Z,5.82
2024-04-09T11:28:34.224Z,4.60
2024-04-09T11:31:01.731Z,5.43
2024-04-09T11:33:30.002Z,5.20
2024-04-09T11:35:59.298Z,4.57
2024-04-09T11:38:26.828Z,4.20
2024-04-09T11:40:54.338Z,2.83
2024-04-09T11:43:24.315Z,3.50
2024-04-09T11:45:51.976Z,4.00
2024-04-09T11:48:21.000Z,4.07
2024-04-09T11:50:48.287Z,3.40
2024-04-09T11:53:22.133Z,3.20
2024-04-09T11:55:54.565Z,2.45
2024-04-09T11:58:30.699Z,3.05
2024-04-09T12:00:57.738Z,1.80
2024-04-09T12:03:24.749Z,1.20
2024-04-09T12:05:51.714Z,2.80
2024-04-09T12:08:18.549Z,0.90
2024-04-09T12:10:45.368Z,2.40
2024-04-09T12:13:12.253Z,2.25
2024-04-09T12:15:40.272Z,2.65
2024-04-09T12:18:07.405Z,1.08
2024-04-09T12:20:34.327Z,2.05
2024-04-09T12:23:01.285Z,3.78
2024-04-09T12:25:29.267Z,3.42
2024-04-09T12:27:56.256Z,2.10
2024-04-09T12:30:23.808Z,2.55
2024-04-09T12:32:52.403Z,3.05
2024-04-09T12:35:22.380Z,3.15
2024-04-09T12:37:49.775Z,3.13
2024-04-09T12:40:16.671Z,2.47
2024-04-09T12:42:43.748Z,4.13
2024-04-09T12:45:10.618Z,4.03
2024-04-09T12:47:38.153Z,3.20
2024-04-09T12:50:06.220Z,3.15
2024-04-09T12:52:35.438Z,4.18
2024-04-09T12:55:03.788Z,3.42
2024-04-09T12:57:30.611Z,5.00
2024-04-09T13:00:13.421Z,3.95
2024-04-09T13:02:45.700Z,4.43
2024-04-09T13:05:17.461Z,5.65
2024-04-09T13:07:45.375Z,6.72
2024-04-09T13:10:12.329Z,5.05
2024-04-09T13:12:39.269Z,5.07
2024-04-09T13:16:44.136Z,3.83
2024-04-09T13:17:53.972Z,5.18
2024-04-09T13:20:20.835Z,4.57
2024-04-09T13:22:47.769Z,4.80
2024-04-09T13:25:14.671Z,3.33
2024-04-09T13:27:41.698Z,1.85
2024-04-09T13:30:09.098Z,2.88
2024-04-09T13:32:36.766Z,6.47
2024-04-09T13:35:04.436Z,4.78
2024-04-09T13:37:31.381Z,5.10
2024-04-09T13:39:58.346Z,5.13
2024-04-09T13:42:25.301Z,5.07
2024-04-09T13:44:52.350Z,4.32
2024-04-09T13:47:22.232Z,3.13
2024-04-09T13:49:49.468Z,4.45
2024-04-09T13:52:17.876Z,4.80
2024-04-09T13:54:44.820Z,3.58
2024-04-09T13:57:21.014Z,3.63
2024-04-09T13:59:51.511Z,4.22
2024-04-09T14:02:19.275Z,3.53
2024-04-09T14:04:46.737Z,6.45
2024-04-09T14:07:14.029Z,4.07
2024-04-09T14:09:52.988Z,4.95
2024-04-09T14:12:20.504Z,4.90
2024-04-09T14:14:47.646Z,4.47
2024-04-09T14:17:14.725Z,4.30
2024-04-09T14:19:42.054Z,3.33
2024-04-09T14:22:10.411Z,2.65
2024-04-09T14:24:43.380Z,2.35
2024-04-09T14:27:10.601Z,7.72
2024-04-09T14:29:48.369Z,3.83
2024-04-09T14:32:19.872Z,3.17
2024-04-09T14:34:50.097Z,3.30
2024-04-09T14:37:25.239Z,2.78
2024-04-09T14:39:52.068Z,3.88
2024-04-09T14:42:20.319Z,4.72
2024-04-09T14:44:47.768Z,4.25
2024-04-09T14:47:14.873Z,3.92
2024-04-09T14:49:45.942Z,5.15
2024-04-09T14:52:13.258Z,4.80
2024-04-09T14:54:41.497Z,6.57
2024-04-09T14:57:08.357Z,4.00
2024-04-09T14:59:38.267Z,6.15
2024-04-09T15:02:05.292Z,3.63
2024-04-09T15:04:32.200Z,5.57
2024-04-09T15:06:59.126Z,3.83
2024-04-09T15:09:26.330Z,4.75
2024-04-09T15:11:55.770Z,8.32
2024-04-09T15:14:22.986Z,4.22
2024-04-09T15:16:56.585Z,4.50
2024-04-09T15:19:23.515Z,3.70
2024-04-09T15:21:53.694Z,5.30
2024-04-09T15:24:20.526Z,2.75
2024-04-09T15:26:47.341Z,2.67
2024-04-09T15:29:14.578Z,2.83
2024-04-09T15:31:41.524Z,2.67
2024-04-09T15:34:08.839Z,2.50
2024-04-09T15:36:36.392Z,4.15
2024-04-09T15:39:06.761Z,3.00
2024-04-09T15:41:34.310Z,2.17
2024-04-09T15:44:01.623Z,5.40
2024-04-09T15:46:28.716Z,2.58
2024-04-09T15:48:55.778Z,2.55
2024-04-09T15:51:22.804Z,2.45
2024-04-09T15:53:52.154Z,2.92
2024-04-09T15:56:19.188Z,3.80
2024-04-09T15:58:46.026Z,1.55
2024-04-09T16:01:14.355Z,3.63
2024-04-09T16:03:44.387Z,4.10
2024-04-09T16:06:12.108Z,2.55
2024-04-09T16:08:39.349Z,3.88
2024-04-09T16:11:11.246Z,2.35
2024-04-09T16:13:44.875Z,2.33
2024-04-09T16:16:19.356Z,5.32
2024-04-09T16:18:56.117Z,3.25
2024-04-09T16:21:24.041Z,6.63
2024-04-09T16:23:51.855Z,3.20
2024-04-09T16:26:21.824Z,2.67
2024-04-09T16:28:48.746Z,1.88
2024-04-09T16:31:15.856Z,2.20
2024-04-09T16:33:45.861Z,2.97
2024-04-09T16:36:16.498Z,1.60
2024-04-09T16:38:43.475Z,1.08
2024-04-09T16:41:11.036Z,3.60
2024-04-09T16:43:40.285Z,1.42
2024-04-09T16:46:08.477Z,2.92
2024-04-09T16:48:35.734Z,3.50
2024-04-09T16:51:03.706Z,3.97
2024-04-09T16:53:30.823Z,2.55
2024-04-09T16:56:02.013Z,3.30
2024-04-09T16:58:29.940Z,1.40
2024-04-09T17:00:57.580Z,1.88
2024-04-09T17:03:25.041Z,1.70
2024-04-09T17:05:53.047Z,2.05
2024-04-09T17:08:20.186Z,2.15
2024-04-09T17:11:03.309Z,2.05
2024-04-09T17:13:30.841Z,1.00
2024-04-09T17:15:57.795Z,1.42
2024-04-09T17:18:24.834Z,1.67
2024-04-09T17:20:51.878Z,0.98
2024-04-09T17:23:18.900Z,1.63
2024-04-09T17:25:46.437Z,3.25
2024-04-09T17:28:13.387Z,1.92
2024-04-09T17:30:40.849Z,2.38
2024-04-09T17:33:07.812Z,3.38
2024-04-09T17:35:35.291Z,1.77
2024-04-09T17:38:02.732Z,3.63
2024-04-09T17:40:29.696Z,2.92
2024-04-09T17:42:57.345Z,4.00
2024-04-09T17:45:24.253Z,3.17
2024-04-09T17:47:51.510Z,3.58
2024-04-09T17:50:19.678Z,2.05
2024-04-09T17:52:46.695Z,1.80
2024-04-09T17:55:13.556Z,3.92
2024-04-09T17:57:40.414Z,2.70
2024-04-09T18:00:08.189Z,3.63
2024-04-09T18:02:37.542Z,2.58
2024-04-09T18:05:07.647Z,1.08
2024-04-09T18:07:38.037Z,1.40
2024-04-09T18:10:10.286Z,1.15
2024-04-09T18:12:38.090Z,2.83
2024-04-09T18:15:05.666Z,2.55
2024-04-09T18:17:32.676Z,1.70
2024-04-09T18:20:00.272Z,2.13
2024-04-09T18:22:27.268Z,2.05
2024-04-09T18:24:54.127Z,2.75
2024-04-09T18:27:21.097Z,4.85
2024-04-09T18:29:48.418Z,3.53
2024-04-09T18:32:18.628Z,2.20
2024-04-09T18:34:45.726Z,4.28
2024-04-09T18:37:12.995Z,2.67
2024-04-09T18:39:40.226Z,1.42
2024-04-09T18:42:07.311Z,1.70
2024-04-09T18:44:34.797Z,1.38
2024-04-09T18:47:01.954Z,2.13
2024-04-09T18:49:28.821Z,1.63
2024-04-09T18:51:56.088Z,3.83
2024-04-09T18:54:22.894Z,1.40
2024-04-09T18:56:50.115Z,2.47
2024-04-09T18:59:19.014Z,3.38
2024-04-09T19:01:45.817Z,3.00
2024-04-09T19:04:13.303Z,1.42
2024-04-09T19:06:40.345Z,1.98
2024-04-09T19:09:14.442Z,2.53
2024-04-09T19:11:42.167Z,2.58
2024-04-09T19:14:10.469Z,0.88
2024-04-09T19:16:37.800Z,3.30
2024-04-09T19:19:05.290Z,2.92
2024-04-09T19:21:32.229Z,1.33
2024-04-09T19:23:59.211Z,0.88
2024-04-09T19:26:27.775Z,2.30
2024-04-09T19:28:55.676Z,1.65
2024-04-09T19:31:22.993Z,2.28
2024-04-09T19:33:49.833Z,0.88
2024-04-09T19:36:16.974Z,0.73
2024-04-09T19:38:43.873Z,1.80
2024-04-09T19:41:10.831Z,0.63
2024-04-09T19:43:44.373Z,1.33
2024-04-09T19:46:12.201Z,2.08
2024-04-09T19:48:39.252Z,1.50
2024-04-09T19:51:06.346Z,2.20
2024-04-09T19:53:45.166Z,0.90
2024-04-09T19:56:19.535Z,0.75
2024-04-09T19:58:47.786Z,1.10
2024-04-09T20:01:15.386Z,1.42
2024-04-09T20:03:43.378Z,0.88
2024-04-09T20:06:10.474Z,1.30
2024-04-09T20:08:38.053Z,0.68
2024-04-09T20:11:07.252Z,0.75
2024-04-09T20:13:34.664Z,0.93
2024-04-09T20:16:01.471Z,0.55
2024-04-09T20:18:31.882Z,1.17
2024-04-09T20:20:59.200Z,1.00
2024-04-09T20:23:26.338Z,0.98
2024-04-09T20:26:00.705Z,0.55
2024-04-09T20:28:28.380Z,2.38
2024-04-09T20:31:00.768Z,1.15
2024-04-09T20:33:29.837Z,1.70
2024-04-09T20:35:56.754Z,1.88
2024-04-09T20:38:25.464Z,3.63
2024-04-09T20:41:10.420Z,1.00
2024-04-09T20:43:37.554Z,2.28
2024-04-09T20:46:04.554Z,0.90
2024-04-09T20:48:31.538Z,1.35
2024-04-09T20:50:58.531Z,1.90
2024-04-09T20:53:26.283Z,1.33
2024-04-09T20:56:04.289Z,1.02
2024-04-09T20:58:31.257Z,0.73
2024-04-09T21:01:01.054Z,1.80
2024-04-09T21:03:28.056Z,1.42
2024-04-09T21:05:54.878Z,2.03
2024-04-09T21:08:21.951Z,1.42
2024-04-09T21:10:51.315Z,2.17
2024-04-09T21:13:21.896Z,0.75
2024-04-09T21:15:48.900Z,1.42
2024-04-09T21:18:17.922Z,2.13
2024-04-09T21:20:45.969Z,3.15
2024-04-09T21:23:12.900Z,1.73
2024-04-09T21:25:40.716Z,1.23
2024-04-09T21:28:07.972Z,1.48
2024-04-09T21:30:35.623Z,3.00
2024-04-09T21:33:05.836Z,1.98
2024-04-09T21:35:33.223Z,2.08
2024-04-09T21:38:00.283Z,1.60
2024-04-09T21:40:27.521Z,1.40
2024-04-09T21:42:54.731Z,2.45
2024-04-09T21:45:22.266Z,3.22
2024-04-09T21:47:49.133Z,3.10
2024-04-09T21:50:16.206Z,1.40
2024-04-09T21:52:42.982Z,1.73
2024-04-09T21:55:09.980Z,1.77
2024-04-09T21:57:36.837Z,4.47
2024-04-09T22:00:05.767Z,1.58
2024-04-09T22:02:32.817Z,1.95
2024-04-09T22:04:59.674Z,1.73
2024-04-09T22:07:26.610Z,3.75
2024-04-09T22:09:53.545Z,3.28
2024-04-09T22:12:20.524Z,3.25
2024-04-09T22:14:47.541Z,1.80
2024-04-09T22:17:14.572Z,2.80
2024-04-09T22:19:41.436Z,2.03
2024-04-09T22:22:08.315Z,1.67
2024-04-09T22:24:35.087Z,2.92
2024-04-09T22:27:01.877Z,3.22
2024-04-09T22:29:29.164Z,2.22
2024-04-09T22:31:56.138Z,2.83
2024-04-09T22:34:24.234Z,3.33
2024-04-09T22:36:51.154Z,2.65
2024-04-09T22:39:18.138Z,4.32
2024-04-09T22:41:45.119Z,4.50
2024-04-09T22:44:12.400Z,4.88
2024-04-09T22:46:39.674Z,3.22
2024-04-09T22:49:06.647Z,3.50
2024-04-09T22:51:34.074Z,3.47
2024-04-09T22:54:01.175Z,2.50
2024-04-09T22:56:28.474Z,6.28
2024-04-09T22:58:56.252Z,2.38
2024-04-09T23:01:23.041Z,5.88
2024-04-09T23:03:51.693Z,5.00
2024-04-09T23:06:18.643Z,4.15
2024-04-09T23:08:45.833Z,3.95
2024-04-09T23:11:12.787Z,3.22
2024-04-09T23:13:40.759Z,3.85
2024-04-09T23:16:16.006Z,4.03
2024-04-09T23:18:43.557Z,3.80
2024-04-09T23:21:10.409Z,3.92
2024-04-09T23:23:37.351Z,3.97
2024-04-09T23:26:04.645Z,3.75
2024-04-09T23:28:34.915Z,3.00
2024-04-09T23:31:01.676Z,4.50
2024-04-09T23:33:28.478Z,3.42
2024-04-09T23:35:55.367Z,3.83
2024-04-09T23:38:22.127Z,4.00
2024-04-09T23:40:48.961Z,4.13
2024-04-09T23:43:18.501Z,3.88
2024-04-09T23:45:45.361Z,4.65
2024-04-09T23:48:12.373Z,6.97
2024-04-09T23:50:39.548Z,4.47
2024-04-09T23:53:06.391Z,4.47
2024-04-09T23:55:33.403Z,6.22
2024-04-09T23:58:00.396Z,5.32
